sensor_id;sensor_type;location;lat;lon;timestamp;temperature;humidity
42743;DHT22;28397;44.552;-0.848;2022-09-21T00:00:50;9.70;99.90
42743;DHT22;28397;44.552;-0.848;2022-09-21T00:03:16;9.60;99.90
42743;DHT22;28397;44.552;-0.848;2022-09-21T00:05:42;9.50;99.90
42743;DHT22;28397;44.552;-0.848;2022-09-21T00:08:10;9.50;99.90
42743;DHT22;28397;44.552;-0.848;2022-09-21T00:10:36;9.50;99.90
42743;DHT22;28397;44.552;-0.848;2022-09-21T00:13:02;9.40;99.90
42743;DHT22;28397;44.552;-0.848;2022-09-21T00:15:29;9.40;99.90
42743;DHT22;28397;44.552;-0.848;2022-09-21T00:17:57;9.40;99.90
42743;DHT22;28397;44.552;-0.848;2022-09-21T00:20:24;9.30;99.90
42743;DHT22;28397;44.552;-0.848;2022-09-21T00:22:50;9.30;99.90
42743;DHT22;28397;44.552;-0.848;2022-09-21T00:25:17;9.20;99.90
42743;DHT22;28397;44.552;-0.848;2022-09-21T00:27:43;9.20;99.90
42743;DHT22;28397;44.552;-0.848;2022-09-21T00:30:12;9.10;99.90
42743;DHT22;28397;44.552;-0.848;2022-09-21T00:32:38;9.10;99.90
42743;DHT22;28397;44.552;-0.848;2022-09-21T00:35:06;9.00;99.90
42743;DHT22;28397;44.552;-0.848;2022-09-21T00:37:33;8.90;99.90
42743;DHT22;28397;44.552;-0.848;2022-09-21T00:39:59;9.00;99.90
42743;DHT22;28397;44.552;-0.848;2022-09-21T00:42:30;9.00;99.90
42743;DHT22;28397;44.552;-0.848;2022-09-21T00:44:57;8.90;99.90
42743;DHT22;28397;44.552;-0.848;2022-09-21T00:47:33;8.90;99.90
42743;DHT22;28397;44.552;-0.848;2022-09-21T00:50:05;8.90;99.90
42743;DHT22;28397;44.552;-0.848;2022-09-21T00:52:35;8.80;99.90
42743;DHT22;28397;44.552;-0.848;2022-09-21T00:55:08;8.70;99.90
42743;DHT22;28397;44.552;-0.848;2022-09-21T00:57:35;8.70;99.90
42743;DHT22;28397;44.552;-0.848;2022-09-21T01:00:04;8.70;99.90
42743;DHT22;28397;44.552;-0.848;2022-09-21T01:02:31;8.60;99.90
42743;DHT22;28397;44.552;-0.848;2022-09-21T01:04:57;8.50;99.90
42743;DHT22;28397;44.552;-0.848;2022-09-21T01:07:26;8.50;99.90
42743;DHT22;28397;44.552;-0.848;2022-09-21T01:09:56;8.50;99.90
42743;DHT22;28397;44.552;-0.848;2022-09-21T01:12:35;8.40;99.90
42743;DHT22;28397;44.552;-0.848;2022-09-21T01:20:27;8.40;99.90
42743;DHT22;28397;44.552;-0.848;2022-09-21T01:25:57;8.20;99.90
42743;DHT22;28397;44.552;-0.848;2022-09-21T01:31:27;8.30;99.90
42743;DHT22;28397;44.552;-0.848;2022-09-21T01:33:59;8.20;99.90
42743;DHT22;28397;44.552;-0.848;2022-09-21T01:36:30;8.10;99.90
42743;DHT22;28397;44.552;-0.848;2022-09-21T01:39:06;8.20;99.90
42743;DHT22;28397;44.552;-0.848;2022-09-21T01:41:34;8.20;99.90
42743;DHT22;28397;44.552;-0.848;2022-09-21T01:44:08;8.20;99.90
42743;DHT22;28397;44.552;-0.848;2022-09-21T01:46:36;8.00;99.90
42743;DHT22;28397;44.552;-0.848;2022-09-21T01:49:10;7.90;99.90
42743;DHT22;28397;44.552;-0.848;2022-09-21T01:51:41;7.90;99.90
42743;DHT22;28397;44.552;-0.848;2022-09-21T01:54:16;7.90;99.90
42743;DHT22;28397;44.552;-0.848;2022-09-21T01:56:47;7.80;99.90
42743;DHT22;28397;44.552;-0.848;2022-09-21T01:59:18;7.80;99.90
42743;DHT22;28397;44.552;-0.848;2022-09-21T02:01:57;7.80;99.90
42743;DHT22;28397;44.552;-0.848;2022-09-21T02:04:24;7.70;99.90
42743;DHT22;28397;44.552;-0.848;2022-09-21T02:06:50;7.60;99.90
42743;DHT22;28397;44.552;-0.848;2022-09-21T02:09:17;7.50;99.90
42743;DHT22;28397;44.552;-0.848;2022-09-21T02:11:43;7.50;99.90
42743;DHT22;28397;44.552;-0.848;2022-09-21T02:14:20;7.50;99.90
42743;DHT22;28397;44.552;-0.848;2022-09-21T02:22:43;7.40;99.90
42743;DHT22;28397;44.552;-0.848;2022-09-21T02:25:12;7.40;99.90
42743;DHT22;28397;44.552;-0.848;2022-09-21T02:28:37;7.30;99.90
42743;DHT22;28397;44.552;-0.848;2022-09-21T02:30:50;7.30;99.90
42743;DHT22;28397;44.552;-0.848;2022-09-21T02:34:31;7.30;99.90
42743;DHT22;28397;44.552;-0.848;2022-09-21T02:36:48;7.20;99.90
42743;DHT22;28397;44.552;-0.848;2022-09-21T02:39:48;7.20;99.90
42743;DHT22;28397;44.552;-0.848;2022-09-21T02:42:31;7.10;99.90
42743;DHT22;28397;44.552;-0.848;2022-09-21T02:45:19;7.10;99.90
42743;DHT22;28397;44.552;-0.848;2022-09-21T02:47:59;7.10;99.90
42743;DHT22;28397;44.552;-0.848;2022-09-21T02:50:33;7.10;99.90
42743;DHT22;28397;44.552;-0.848;2022-09-21T02:53:00;7.10;99.90
42743;DHT22;28397;44.552;-0.848;2022-09-21T02:55:28;7.00;99.90
42743;DHT22;28397;44.552;-0.848;2022-09-21T02:57:54;7.10;99.90
42743;DHT22;28397;44.552;-0.848;2022-09-21T03:00:21;6.90;99.90
42743;DHT22;28397;44.552;-0.848;2022-09-21T03:02:46;6.80;99.90
42743;DHT22;28397;44.552;-0.848;2022-09-21T03:05:13;6.80;99.90
42743;DHT22;28397;44.552;-0.848;2022-09-21T03:07:40;6.70;99.90
42743;DHT22;28397;44.552;-0.848;2022-09-21T03:10:06;6.70;99.90
42743;DHT22;28397;44.552;-0.848;2022-09-21T03:12:32;6.70;99.90
42743;DHT22;28397;44.552;-0.848;2022-09-21T03:14:58;6.70;99.90
42743;DHT22;28397;44.552;-0.848;2022-09-21T03:17:25;6.70;99.90
42743;DHT22;28397;44.552;-0.848;2022-09-21T03:19:51;6.60;99.90
42743;DHT22;28397;44.552;-0.848;2022-09-21T03:22:22;6.50;99.90
42743;DHT22;28397;44.552;-0.848;2022-09-21T03:24:49;6.40;99.90
42743;DHT22;28397;44.552;-0.848;2022-09-21T03:27:19;6.50;99.90
42743;DHT22;28397;44.552;-0.848;2022-09-21T03:29:46;6.40;99.90
42743;DHT22;28397;44.552;-0.848;2022-09-21T03:32:12;6.40;99.90
42743;DHT22;28397;44.552;-0.848;2022-09-21T03:34:39;6.40;99.90
42743;DHT22;28397;44.552;-0.848;2022-09-21T03:37:07;6.40;99.90
42743;DHT22;28397;44.552;-0.848;2022-09-21T03:39:33;6.40;99.90
42743;DHT22;28397;44.552;-0.848;2022-09-21T03:41:59;6.40;99.90
42743;DHT22;28397;44.552;-0.848;2022-09-21T03:44:25;6.30;99.90
42743;DHT22;28397;44.552;-0.848;2022-09-21T03:46:52;6.20;99.90
42743;DHT22;28397;44.552;-0.848;2022-09-21T03:49:18;6.20;99.90
42743;DHT22;28397;44.552;-0.848;2022-09-21T03:51:44;6.10;99.90
42743;DHT22;28397;44.552;-0.848;2022-09-21T03:54:10;6.10;99.90
42743;DHT22;28397;44.552;-0.848;2022-09-21T03:56:36;6.10;99.90
42743;DHT22;28397;44.552;-0.848;2022-09-21T03:59:02;6.10;99.90
42743;DHT22;28397;44.552;-0.848;2022-09-21T04:01:28;6.10;99.90
42743;DHT22;28397;44.552;-0.848;2022-09-21T04:03:54;6.10;99.90
42743;DHT22;28397;44.552;-0.848;2022-09-21T04:06:20;6.00;99.90
42743;DHT22;28397;44.552;-0.848;2022-09-21T04:08:45;6.00;99.90
42743;DHT22;28397;44.552;-0.848;2022-09-21T04:11:14;6.00;99.90
42743;DHT22;28397;44.552;-0.848;2022-09-21T04:13:41;5.90;99.90
42743;DHT22;28397;44.552;-0.848;2022-09-21T04:16:08;5.80;99.90
42743;DHT22;28397;44.552;-0.848;2022-09-21T04:18:34;5.80;99.90
42743;DHT22;28397;44.552;-0.848;2022-09-21T04:21:00;5.80;99.90
42743;DHT22;28397;44.552;-0.848;2022-09-21T04:23:26;5.80;99.90
42743;DHT22;28397;44.552;-0.848;2022-09-21T04:25:53;5.80;99.90
42743;DHT22;28397;44.552;-0.848;2022-09-21T04:28:20;5.80;99.90
42743;DHT22;28397;44.552;-0.848;2022-09-21T04:30:46;5.70;99.90
42743;DHT22;28397;44.552;-0.848;2022-09-21T04:33:11;5.70;99.90
42743;DHT22;28397;44.552;-0.848;2022-09-21T04:35:38;5.70;99.90
42743;DHT22;28397;44.552;-0.848;2022-09-21T04:38:04;5.60;99.90
42743;DHT22;28397;44.552;-0.848;2022-09-21T04:40:30;5.60;99.90
42743;DHT22;28397;44.552;-0.848;2022-09-21T04:42:56;5.50;99.90
42743;DHT22;28397;44.552;-0.848;2022-09-21T04:45:23;5.50;99.90
42743;DHT22;28397;44.552;-0.848;2022-09-21T04:47:51;5.50;99.90
42743;DHT22;28397;44.552;-0.848;2022-09-21T04:50:17;5.50;99.90
42743;DHT22;28397;44.552;-0.848;2022-09-21T04:52:44;5.40;99.90
42743;DHT22;28397;44.552;-0.848;2022-09-21T04:55:09;5.40;99.90
42743;DHT22;28397;44.552;-0.848;2022-09-21T04:57:35;5.40;99.90
42743;DHT22;28397;44.552;-0.848;2022-09-21T05:00:02;5.40;99.90
42743;DHT22;28397;44.552;-0.848;2022-09-21T05:02:29;5.40;99.90
42743;DHT22;28397;44.552;-0.848;2022-09-21T05:04:54;5.40;99.90
42743;DHT22;28397;44.552;-0.848;2022-09-21T05:07:20;5.30;99.90
42743;DHT22;28397;44.552;-0.848;2022-09-21T05:09:46;5.30;99.90
42743;DHT22;28397;44.552;-0.848;2022-09-21T05:12:27;5.20;99.90
42743;DHT22;28397;44.552;-0.848;2022-09-21T05:14:52;5.20;99.90
42743;DHT22;28397;44.552;-0.848;2022-09-21T05:17:20;5.10;99.90
42743;DHT22;28397;44.552;-0.848;2022-09-21T05:19:51;5.10;99.90
42743;DHT22;28397;44.552;-0.848;2022-09-21T05:22:18;5.10;99.90
42743;DHT22;28397;44.552;-0.848;2022-09-21T05:24:44;5.00;99.90
42743;DHT22;28397;44.552;-0.848;2022-09-21T05:27:10;5.00;99.90
42743;DHT22;28397;44.552;-0.848;2022-09-21T05:29:35;5.00;99.90
42743;DHT22;28397;44.552;-0.848;2022-09-21T05:37:16;4.90;99.90
42743;DHT22;28397;44.552;-0.848;2022-09-21T05:39:47;4.90;99.90
42743;DHT22;28397;44.552;-0.848;2022-09-21T05:42:13;4.90;99.90
42743;DHT22;28397;44.552;-0.848;2022-09-21T05:44:39;4.90;99.90
42743;DHT22;28397;44.552;-0.848;2022-09-21T05:52:39;4.80;99.90
42743;DHT22;28397;44.552;-0.848;2022-09-21T05:57:54;4.90;99.90
42743;DHT22;28397;44.552;-0.848;2022-09-21T06:00:23;4.90;99.90
42743;DHT22;28397;44.552;-0.848;2022-09-21T06:05:52;5.00;99.90
42743;DHT22;28397;44.552;-0.848;2022-09-21T06:08:18;5.20;99.90
42743;DHT22;28397;44.552;-0.848;2022-09-21T06:10:44;5.30;99.90
42743;DHT22;28397;44.552;-0.848;2022-09-21T06:13:10;5.40;99.90
42743;DHT22;28397;44.552;-0.848;2022-09-21T06:15:36;5.50;99.90
42743;DHT22;28397;44.552;-0.848;2022-09-21T06:18:04;5.50;99.90
42743;DHT22;28397;44.552;-0.848;2022-09-21T06:20:30;5.70;99.90
42743;DHT22;28397;44.552;-0.848;2022-09-21T06:23:03;7.40;99.90
42743;DHT22;28397;44.552;-0.848;2022-09-21T06:25:29;9.40;99.90
42743;DHT22;28397;44.552;-0.848;2022-09-21T06:28:00;10.60;99.90
42743;DHT22;28397;44.552;-0.848;2022-09-21T06:30:25;11.40;99.90
42743;DHT22;28397;44.552;-0.848;2022-09-21T06:32:51;12.00;99.90
42743;DHT22;28397;44.552;-0.848;2022-09-21T06:35:17;12.00;99.90
42743;DHT22;28397;44.552;-0.848;2022-09-21T06:37:42;12.20;99.90
42743;DHT22;28397;44.552;-0.848;2022-09-21T06:40:08;12.60;99.90
42743;DHT22;28397;44.552;-0.848;2022-09-21T06:42:34;13.10;99.90
42743;DHT22;28397;44.552;-0.848;2022-09-21T06:45:00;13.50;99.90
42743;DHT22;28397;44.552;-0.848;2022-09-21T06:47:25;13.90;99.90
42743;DHT22;28397;44.552;-0.848;2022-09-21T06:49:51;14.30;99.90
42743;DHT22;28397;44.552;-0.848;2022-09-21T06:52:18;14.90;99.90
42743;DHT22;28397;44.552;-0.848;2022-09-21T06:54:44;15.50;99.90
42743;DHT22;28397;44.552;-0.848;2022-09-21T06:57:11;15.80;99.90
42743;DHT22;28397;44.552;-0.848;2022-09-21T06:59:36;16.30;99.90
42743;DHT22;28397;44.552;-0.848;2022-09-21T07:02:02;17.20;99.90
42743;DHT22;28397;44.552;-0.848;2022-09-21T07:04:28;17.50;99.10
42743;DHT22;28397;44.552;-0.848;2022-09-21T07:06:54;18.50;97.70
42743;DHT22;28397;44.552;-0.848;2022-09-21T07:09:20;18.20;98.00
42743;DHT22;28397;44.552;-0.848;2022-09-21T07:11:45;18.60;97.50
42743;DHT22;28397;44.552;-0.848;2022-09-21T07:14:12;19.10;96.50
42743;DHT22;28397;44.552;-0.848;2022-09-21T07:16:39;19.80;95.90
42743;DHT22;28397;44.552;-0.848;2022-09-21T07:19:05;21.30;94.40
42743;DHT22;28397;44.552;-0.848;2022-09-21T07:21:31;21.40;93.30
42743;DHT22;28397;44.552;-0.848;2022-09-21T07:24:00;21.50;92.70
42743;DHT22;28397;44.552;-0.848;2022-09-21T07:26:26;22.20;92.50
42743;DHT22;28397;44.552;-0.848;2022-09-21T07:28:52;23.00;91.50
42743;DHT22;28397;44.552;-0.848;2022-09-21T07:31:17;23.40;90.20
42743;DHT22;28397;44.552;-0.848;2022-09-21T07:33:44;24.00;89.80
42743;DHT22;28397;44.552;-0.848;2022-09-21T07:36:13;24.50;87.70
42743;DHT22;28397;44.552;-0.848;2022-09-21T07:38:40;24.20;87.20
42743;DHT22;28397;44.552;-0.848;2022-09-21T07:41:07;24.50;86.50
42743;DHT22;28397;44.552;-0.848;2022-09-21T07:43:33;24.70;86.70
42743;DHT22;28397;44.552;-0.848;2022-09-21T07:45:59;24.00;86.90
42743;DHT22;28397;44.552;-0.848;2022-09-21T07:48:26;23.90;87.50
42743;DHT22;28397;44.552;-0.848;2022-09-21T07:50:53;23.90;87.40
42743;DHT22;28397;44.552;-0.848;2022-09-21T07:53:22;23.90;86.70
42743;DHT22;28397;44.552;-0.848;2022-09-21T07:55:47;25.20;84.80
42743;DHT22;28397;44.552;-0.848;2022-09-21T07:58:13;26.10;81.80
42743;DHT22;28397;44.552;-0.848;2022-09-21T08:00:57;25.80;82.40
42743;DHT22;28397;44.552;-0.848;2022-09-21T08:03:25;26.40;81.20
42743;DHT22;28397;44.552;-0.848;2022-09-21T08:05:50;24.70;83.60
42743;DHT22;28397;44.552;-0.848;2022-09-21T08:08:16;23.90;84.60
42743;DHT22;28397;44.552;-0.848;2022-09-21T08:10:42;23.60;85.10
42743;DHT22;28397;44.552;-0.848;2022-09-21T08:13:08;23.30;86.40
42743;DHT22;28397;44.552;-0.848;2022-09-21T08:15:33;24.30;84.10
42743;DHT22;28397;44.552;-0.848;2022-09-21T08:17:59;24.70;82.30
42743;DHT22;28397;44.552;-0.848;2022-09-21T08:20:25;24.80;82.50
42743;DHT22;28397;44.552;-0.848;2022-09-21T08:22:51;24.70;81.80
42743;DHT22;28397;44.552;-0.848;2022-09-21T08:25:19;24.50;82.40
42743;DHT22;28397;44.552;-0.848;2022-09-21T08:27:45;24.50;82.60
42743;DHT22;28397;44.552;-0.848;2022-09-21T08:30:11;25.20;80.70
42743;DHT22;28397;44.552;-0.848;2022-09-21T08:32:38;24.60;82.10
42743;DHT22;28397;44.552;-0.848;2022-09-21T08:35:06;24.80;82.40
42743;DHT22;28397;44.552;-0.848;2022-09-21T08:37:32;24.60;81.80
42743;DHT22;28397;44.552;-0.848;2022-09-21T08:40:01;24.80;81.70
42743;DHT22;28397;44.552;-0.848;2022-09-21T08:45:16;25.00;80.40
42743;DHT22;28397;44.552;-0.848;2022-09-21T08:47:49;25.40;79.20
42743;DHT22;28397;44.552;-0.848;2022-09-21T08:50:28;25.20;80.10
42743;DHT22;28397;44.552;-0.848;2022-09-21T08:53:40;25.90;78.90
42743;DHT22;28397;44.552;-0.848;2022-09-21T08:55:46;26.20;79.00
42743;DHT22;28397;44.552;-0.848;2022-09-21T08:58:23;25.40;79.50
42743;DHT22;28397;44.552;-0.848;2022-09-21T09:01:14;25.80;77.30
42743;DHT22;28397;44.552;-0.848;2022-09-21T09:14:56;27.00;75.20
42743;DHT22;28397;44.552;-0.848;2022-09-21T09:20:18;29.00;74.00
42743;DHT22;28397;44.552;-0.848;2022-09-21T09:23:52;28.60;73.00
42743;DHT22;28397;44.552;-0.848;2022-09-21T09:26:09;28.50;72.90
42743;DHT22;28397;44.552;-0.848;2022-09-21T09:29:02;28.50;72.80
42743;DHT22;28397;44.552;-0.848;2022-09-21T09:31:30;28.00;74.20
42743;DHT22;28397;44.552;-0.848;2022-09-21T09:34:17;29.50;72.50
42743;DHT22;28397;44.552;-0.848;2022-09-21T09:36:58;28.60;72.10
42743;DHT22;28397;44.552;-0.848;2022-09-21T09:39:25;27.50;73.80
42743;DHT22;28397;44.552;-0.848;2022-09-21T09:50:39;28.60;71.60
42743;DHT22;28397;44.552;-0.848;2022-09-21T09:53:09;29.40;70.40
42743;DHT22;28397;44.552;-0.848;2022-09-21T09:55:39;28.40;71.10
42743;DHT22;28397;44.552;-0.848;2022-09-21T09:58:17;28.90;70.80
42743;DHT22;28397;44.552;-0.848;2022-09-21T10:00:44;27.90;72.50
42743;DHT22;28397;44.552;-0.848;2022-09-21T10:03:25;27.90;72.30
42743;DHT22;28397;44.552;-0.848;2022-09-21T10:05:52;26.80;74.50
42743;DHT22;28397;44.552;-0.848;2022-09-21T10:10:54;28.70;71.90
42743;DHT22;28397;44.552;-0.848;2022-09-21T10:13:32;29.00;71.10
42743;DHT22;28397;44.552;-0.848;2022-09-21T10:16:00;30.60;69.30
42743;DHT22;28397;44.552;-0.848;2022-09-21T10:21:25;30.80;68.50
42743;DHT22;28397;44.552;-0.848;2022-09-21T10:24:05;30.30;68.40
42743;DHT22;28397;44.552;-0.848;2022-09-21T10:26:39;29.10;70.00
42743;DHT22;28397;44.552;-0.848;2022-09-21T10:32:03;27.90;72.10
42743;DHT22;28397;44.552;-0.848;2022-09-21T10:34:31;27.60;73.50
42743;DHT22;28397;44.552;-0.848;2022-09-21T10:36:59;30.30;69.60
42743;DHT22;28397;44.552;-0.848;2022-09-21T10:39:30;29.00;68.70
42743;DHT22;28397;44.552;-0.848;2022-09-21T10:49:50;31.10;67.10
42743;DHT22;28397;44.552;-0.848;2022-09-21T10:52:17;30.70;68.20
42743;DHT22;28397;44.552;-0.848;2022-09-21T10:54:47;29.90;69.40
42743;DHT22;28397;44.552;-0.848;2022-09-21T10:57:18;29.40;69.40
42743;DHT22;28397;44.552;-0.848;2022-09-21T10:59:45;28.70;69.40
42743;DHT22;28397;44.552;-0.848;2022-09-21T11:05:22;24.00;75.00
42743;DHT22;28397;44.552;-0.848;2022-09-21T11:10:27;23.60;77.00
42743;DHT22;28397;44.552;-0.848;2022-09-21T11:16:09;24.90;74.50
42743;DHT22;28397;44.552;-0.848;2022-09-21T11:24:39;23.60;75.50
42743;DHT22;28397;44.552;-0.848;2022-09-21T11:30:10;22.70;78.50
42743;DHT22;28397;44.552;-0.848;2022-09-21T11:46:53;23.30;78.00
42743;DHT22;28397;44.552;-0.848;2022-09-21T11:54:46;23.50;73.50
42743;DHT22;28397;44.552;-0.848;2022-09-21T11:57:26;23.70;74.20
42743;DHT22;28397;44.552;-0.848;2022-09-21T12:00:13;22.70;78.00
42743;DHT22;28397;44.552;-0.848;2022-09-21T12:11:34;22.90;75.30
42743;DHT22;28397;44.552;-0.848;2022-09-21T12:14:29;23.60;73.50
42743;DHT22;28397;44.552;-0.848;2022-09-21T12:17:18;23.50;76.70
42743;DHT22;28397;44.552;-0.848;2022-09-21T12:22:31;23.40;73.00
42743;DHT22;28397;44.552;-0.848;2022-09-21T12:27:43;23.30;76.20
42743;DHT22;28397;44.552;-0.848;2022-09-21T12:30:15;23.50;73.30
42743;DHT22;28397;44.552;-0.848;2022-09-21T12:35:43;22.30;78.80
42743;DHT22;28397;44.552;-0.848;2022-09-21T12:38:20;22.20;78.90
42743;DHT22;28397;44.552;-0.848;2022-09-21T12:40:53;23.30;75.20
42743;DHT22;28397;44.552;-0.848;2022-09-21T12:48:53;22.80;76.70
42743;DHT22;28397;44.552;-0.848;2022-09-21T12:53:56;23.10;74.20
42743;DHT22;28397;44.552;-0.848;2022-09-21T13:09:18;23.40;74.00
42743;DHT22;28397;44.552;-0.848;2022-09-21T13:11:57;23.70;71.80
42743;DHT22;28397;44.552;-0.848;2022-09-21T13:14:27;22.70;76.80
42743;DHT22;28397;44.552;-0.848;2022-09-21T13:16:59;21.90;78.80
42743;DHT22;28397;44.552;-0.848;2022-09-21T13:19:30;22.20;74.70
42743;DHT22;28397;44.552;-0.848;2022-09-21T13:22:22;22.10;77.60
42743;DHT22;28397;44.552;-0.848;2022-09-21T13:30:44;23.20;68.20
42743;DHT22;28397;44.552;-0.848;2022-09-21T13:59:44;23.20;71.70
42743;DHT22;28397;44.552;-0.848;2022-09-21T14:02:28;23.50;71.30
42743;DHT22;28397;44.552;-0.848;2022-09-21T14:05:02;23.00;74.50
42743;DHT22;28397;44.552;-0.848;2022-09-21T14:07:30;22.50;75.20
42743;DHT22;28397;44.552;-0.848;2022-09-21T14:09:59;21.80;76.70
42743;DHT22;28397;44.552;-0.848;2022-09-21T14:12:26;23.40;70.30
42743;DHT22;28397;44.552;-0.848;2022-09-21T14:17:41;23.80;71.30
42743;DHT22;28397;44.552;-0.848;2022-09-21T14:20:27;23.80;71.00
42743;DHT22;28397;44.552;-0.848;2022-09-21T14:25:53;23.80;71.70
42743;DHT22;28397;44.552;-0.848;2022-09-21T14:31:04;23.60;71.80
42743;DHT22;28397;44.552;-0.848;2022-09-21T14:33:54;23.10;72.90
42743;DHT22;28397;44.552;-0.848;2022-09-21T14:36:32;22.70;74.30
42743;DHT22;28397;44.552;-0.848;2022-09-21T14:39:05;23.10;70.80
42743;DHT22;28397;44.552;-0.848;2022-09-21T14:41:42;23.20;73.10
42743;DHT22;28397;44.552;-0.848;2022-09-21T14:44:20;23.50;71.10
42743;DHT22;28397;44.552;-0.848;2022-09-21T15:00:39;22.40;72.90
42743;DHT22;28397;44.552;-0.848;2022-09-21T15:06:09;23.60;68.30
42743;DHT22;28397;44.552;-0.848;2022-09-21T15:12:36;23.30;71.00
42743;DHT22;28397;44.552;-0.848;2022-09-21T15:15:14;23.00;70.50
42743;DHT22;28397;44.552;-0.848;2022-09-21T15:17:55;22.50;71.50
42743;DHT22;28397;44.552;-0.848;2022-09-21T15:20:24;22.80;69.30
42743;DHT22;28397;44.552;-0.848;2022-09-21T15:22:55;23.00;67.90
42743;DHT22;28397;44.552;-0.848;2022-09-21T15:25:21;23.00;68.20
42743;DHT22;28397;44.552;-0.848;2022-09-21T15:27:48;22.60;71.90
42743;DHT22;28397;44.552;-0.848;2022-09-21T15:30:22;23.00;66.90
42743;DHT22;28397;44.552;-0.848;2022-09-21T15:33:10;23.30;66.30
42743;DHT22;28397;44.552;-0.848;2022-09-21T15:35:37;23.40;67.20
42743;DHT22;28397;44.552;-0.848;2022-09-21T15:38:25;23.00;69.60
42743;DHT22;28397;44.552;-0.848;2022-09-21T15:40:51;22.50;71.30
42743;DHT22;28397;44.552;-0.848;2022-09-21T15:43:18;22.40;69.80
42743;DHT22;28397;44.552;-0.848;2022-09-21T15:45:49;22.30;70.70
42743;DHT22;28397;44.552;-0.848;2022-09-21T15:48:33;22.60;68.40
42743;DHT22;28397;44.552;-0.848;2022-09-21T15:53:31;22.70;66.60
42743;DHT22;28397;44.552;-0.848;2022-09-21T15:55:59;23.20;67.60
42743;DHT22;28397;44.552;-0.848;2022-09-21T15:58:37;23.30;66.90
42743;DHT22;28397;44.552;-0.848;2022-09-21T16:01:22;23.20;67.10
42743;DHT22;28397;44.552;-0.848;2022-09-21T16:04:01;23.30;67.30
42743;DHT22;28397;44.552;-0.848;2022-09-21T16:06:39;23.10;67.20
42743;DHT22;28397;44.552;-0.848;2022-09-21T16:11:51;23.10;66.80
42743;DHT22;28397;44.552;-0.848;2022-09-21T16:14:18;22.80;68.20
42743;DHT22;28397;44.552;-0.848;2022-09-21T16:25:33;22.80;67.10
42743;DHT22;28397;44.552;-0.848;2022-09-21T16:28:22;22.80;69.10
42743;DHT22;28397;44.552;-0.848;2022-09-21T16:30:51;22.90;67.60
42743;DHT22;28397;44.552;-0.848;2022-09-21T16:38:52;23.00;68.50
42743;DHT22;28397;44.552;-0.848;2022-09-21T16:41:19;22.90;68.60
42743;DHT22;28397;44.552;-0.848;2022-09-21T16:43:46;22.70;68.40
42743;DHT22;28397;44.552;-0.848;2022-09-21T16:46:12;22.60;69.30
42743;DHT22;28397;44.552;-0.848;2022-09-21T16:48:38;22.70;69.30
42743;DHT22;28397;44.552;-0.848;2022-09-21T16:51:14;22.70;69.30
42743;DHT22;28397;44.552;-0.848;2022-09-21T16:53:42;22.60;69.30
42743;DHT22;28397;44.552;-0.848;2022-09-21T16:56:12;22.60;69.30
42743;DHT22;28397;44.552;-0.848;2022-09-21T16:58:41;22.80;67.80
42743;DHT22;28397;44.552;-0.848;2022-09-21T17:01:17;22.70;69.90
42743;DHT22;28397;44.552;-0.848;2022-09-21T17:03:45;22.60;69.90
42743;DHT22;28397;44.552;-0.848;2022-09-21T17:06:19;22.30;71.30
42743;DHT22;28397;44.552;-0.848;2022-09-21T17:08:46;22.10;70.30
42743;DHT22;28397;44.552;-0.848;2022-09-21T17:11:14;22.00;71.50
42743;DHT22;28397;44.552;-0.848;2022-09-21T17:13:48;22.00;70.90
42743;DHT22;28397;44.552;-0.848;2022-09-21T17:16:14;22.20;71.10
42743;DHT22;28397;44.552;-0.848;2022-09-21T17:18:46;22.30;69.90
42743;DHT22;28397;44.552;-0.848;2022-09-21T17:21:12;22.30;70.70
42743;DHT22;28397;44.552;-0.848;2022-09-21T17:23:38;22.20;70.20
42743;DHT22;28397;44.552;-0.848;2022-09-21T17:26:11;22.00;71.30
42743;DHT22;28397;44.552;-0.848;2022-09-21T17:28:40;21.90;71.00
42743;DHT22;28397;44.552;-0.848;2022-09-21T17:31:10;21.80;72.40
42743;DHT22;28397;44.552;-0.848;2022-09-21T17:33:36;21.70;72.60
42743;DHT22;28397;44.552;-0.848;2022-09-21T17:36:01;21.60;72.80
42743;DHT22;28397;44.552;-0.848;2022-09-21T17:38:33;21.20;74.50
42743;DHT22;28397;44.552;-0.848;2022-09-21T17:41:13;21.00;75.70
42743;DHT22;28397;44.552;-0.848;2022-09-21T17:49:26;20.30;80.00
42743;DHT22;28397;44.552;-0.848;2022-09-21T17:51:51;20.00;80.90
42743;DHT22;28397;44.552;-0.848;2022-09-21T17:54:36;19.70;83.00
42743;DHT22;28397;44.552;-0.848;2022-09-21T17:59:56;19.40;83.90
42743;DHT22;28397;44.552;-0.848;2022-09-21T18:02:24;19.30;83.50
42743;DHT22;28397;44.552;-0.848;2022-09-21T18:04:55;19.10;84.40
42743;DHT22;28397;44.552;-0.848;2022-09-21T18:07:23;18.70;86.30
42743;DHT22;28397;44.552;-0.848;2022-09-21T18:09:50;18.50;87.70
42743;DHT22;28397;44.552;-0.848;2022-09-21T18:15:18;18.40;89.10
42743;DHT22;28397;44.552;-0.848;2022-09-21T18:20:46;18.20;89.00
42743;DHT22;28397;44.552;-0.848;2022-09-21T18:23:27;17.90;90.00
42743;DHT22;28397;44.552;-0.848;2022-09-21T18:25:56;17.60;90.30
42743;DHT22;28397;44.552;-0.848;2022-09-21T18:28:32;17.50;90.70
42743;DHT22;28397;44.552;-0.848;2022-09-21T18:39:00;17.20;91.30
42743;DHT22;28397;44.552;-0.848;2022-09-21T18:41:36;17.00;92.10
42743;DHT22;28397;44.552;-0.848;2022-09-21T18:44:13;16.90;92.30
42743;DHT22;28397;44.552;-0.848;2022-09-21T18:47:21;16.80;92.70
42743;DHT22;28397;44.552;-0.848;2022-09-21T18:50:05;16.60;92.80
42743;DHT22;28397;44.552;-0.848;2022-09-21T18:53:00;16.60;93.20
42743;DHT22;28397;44.552;-0.848;2022-09-21T18:55:29;16.50;93.90
42743;DHT22;28397;44.552;-0.848;2022-09-21T18:57:58;16.40;94.20
42743;DHT22;28397;44.552;-0.848;2022-09-21T19:00:26;16.30;94.80
42743;DHT22;28397;44.552;-0.848;2022-09-21T19:02:57;16.20;95.20
42743;DHT22;28397;44.552;-0.848;2022-09-21T19:05:23;16.00;95.40
42743;DHT22;28397;44.552;-0.848;2022-09-21T19:08:04;15.90;95.90
42743;DHT22;28397;44.552;-0.848;2022-09-21T19:10:43;15.90;96.20
42743;DHT22;28397;44.552;-0.848;2022-09-21T19:13:22;15.80;96.40
42743;DHT22;28397;44.552;-0.848;2022-09-21T19:16:04;15.70;96.90
42743;DHT22;28397;44.552;-0.848;2022-09-21T19:22:13;15.50;97.40
42743;DHT22;28397;44.552;-0.848;2022-09-21T19:27:56;15.30;97.90
42743;DHT22;28397;44.552;-0.848;2022-09-21T19:30:23;15.20;98.20
42743;DHT22;28397;44.552;-0.848;2022-09-21T19:32:51;15.10;98.40
42743;DHT22;28397;44.552;-0.848;2022-09-21T19:35:31;15.00;98.70
42743;DHT22;28397;44.552;-0.848;2022-09-21T19:37:59;14.90;99.20
42743;DHT22;28397;44.552;-0.848;2022-09-21T19:40:37;14.80;99.70
42743;DHT22;28397;44.552;-0.848;2022-09-21T19:43:11;14.70;99.80
42743;DHT22;28397;44.552;-0.848;2022-09-21T19:48:13;14.60;99.90
42743;DHT22;28397;44.552;-0.848;2022-09-21T19:50:55;14.50;99.90
42743;DHT22;28397;44.552;-0.848;2022-09-21T19:53:23;14.40;99.90
42743;DHT22;28397;44.552;-0.848;2022-09-21T19:56:14;14.30;99.90
42743;DHT22;28397;44.552;-0.848;2022-09-21T19:58:59;14.20;99.90
42743;DHT22;28397;44.552;-0.848;2022-09-21T20:01:55;14.20;99.90
42743;DHT22;28397;44.552;-0.848;2022-09-21T20:07:06;14.10;99.90
42743;DHT22;28397;44.552;-0.848;2022-09-21T20:09:43;14.00;99.90
42743;DHT22;28397;44.552;-0.848;2022-09-21T20:12:27;13.90;99.90